首页
METAR-TAF:

METAR-TAF

机场 :

宮崎機場

宮崎, 日本

纬度: 31-52N, 经度: 131-27E, 海拔: 6米

当前天气观测

该预报发布于1小时和12分钟前的01:00 UTC
风速18节,风向东南
温度 30°C
湿度 79%
气压 1005 hPa
能見度: 9000
少量云层高于1000英尺
散云层高于2000英尺
多云层高于5000英尺

METAR: RJFM 220100Z 13018KT 9000 FEW010 SCT020 BKN050 30/26 Q1005

时间: 11:12 (02:12 UTC)

预报

该预报发布于3小时和7分钟前的23:05 UTC
预报有效从22日的 00点(UTC)到 23日的 06点(UTC)
风速23节,风向东转东南
能見度: 7000
少量云层高于1000英尺
散云层高于1500英尺
多云层高于2500英尺
小阵雨
短暂存在
从 22日的 00点(UTC)到 22日的 03点(UTC)
风速25节,风向东转东南,有时为35节阵风
能見度: 2500
阵雨, 轻雾
短暂存在
从 22日的 03点(UTC)到 22日的 06点(UTC)
风速23节,风向东转东南,有时为33节阵风
能見度: 3500
小阵雨, 轻雾
短暂存在
从 22日的 15点(UTC)到 23日的 00点(UTC)
能見度: 4000
少量云层高于500英尺
多云层高于800英尺
多云层高于1200英尺
小阵雨, 轻雾
成为
从 22日的 18点(UTC)到 22日的 21点(UTC)
风速10节,风向东转东北

TAF: RJFM 212305Z 2200/2306 12023KT 7000 -SHRA FEW010 SCT015 BKN025 TEMPO 2200/2203 12025G35KT 2500 SHRA BR TEMPO 2203/2206 12023G33KT 3500 -SHRA BR TEMPO 2215/2300 4000 -SHRA BR FEW005 BKN008 BKN012 BECMG 2218/2221 07010KT

超过4000个机场的气象观测和天气预报(METAR&TAF报告)。

可查询的气象台以黄色和红色小点在地图上表示。

将鼠标移到小点上方,可查看气象台名称。

然后点击查看天气观测和预报。

如需切换地图:点击带黑十字的绿色按钮放大地图;点击带横线的绿色按钮缩小地图;或者点击绿色箭头查看邻近地区的地图。


METAR-TAF: